sensor_id;sensor_type;location;lat;lon;timestamp;pressure;altitude;pressure_sealevel;temperature;humidity
10652;BME280;5374;42.742;23.266;2023-02-05T00:02:17;95502.47;;;-1.30;84.45
10652;BME280;5374;42.742;23.266;2023-02-05T00:05:06;95534.19;;;-1.04;84.61
10652;BME280;5374;42.742;23.266;2023-02-05T00:07:54;95536.16;;;-1.06;85.05
10652;BME280;5374;42.742;23.266;2023-02-05T00:10:41;95534.72;;;-1.31;84.84
10652;BME280;5374;42.742;23.266;2023-02-05T00:13:29;95550.97;;;-1.07;84.93
10652;BME280;5374;42.742;23.266;2023-02-05T00:16:18;95547.38;;;-1.06;84.65
10652;BME280;5374;42.742;23.266;2023-02-05T00:19:06;95547.09;;;-1.11;84.84
10652;BME280;5374;42.742;23.266;2023-02-05T00:21:54;95555.50;;;-1.00;84.75
10652;BME280;5374;42.742;23.266;2023-02-05T00:24:41;95547.91;;;-1.10;84.64
10652;BME280;5374;42.742;23.266;2023-02-05T00:27:29;95554.22;;;-1.05;85.00
10652;BME280;5374;42.742;23.266;2023-02-05T00:30:16;95517.41;;;-1.47;84.73
10652;BME280;5374;42.742;23.266;2023-02-05T00:33:03;95561.28;;;-1.13;86.36
10652;BME280;5374;42.742;23.266;2023-02-05T00:35:50;95552.22;;;-1.17;85.68
10652;BME280;5374;42.742;23.266;2023-02-05T00:38:39;95568.09;;;-1.12;86.02
10652;BME280;5374;42.742;23.266;2023-02-05T00:41:26;95576.94;;;-1.13;85.50
10652;BME280;5374;42.742;23.266;2023-02-05T00:44:13;95590.13;;;-1.15;85.48
10652;BME280;5374;42.742;23.266;2023-02-05T00:47:00;95582.91;;;-1.13;84.36
10652;BME280;5374;42.742;23.266;2023-02-05T00:49:47;95579.47;;;-1.05;83.84
10652;BME280;5374;42.742;23.266;2023-02-05T00:52:35;95573.31;;;-1.12;83.78
10652;BME280;5374;42.742;23.266;2023-02-05T00:55:23;95581.50;;;-1.15;83.29
10652;BME280;5374;42.742;23.266;2023-02-05T00:58:10;95581.94;;;-1.12;82.94
10652;BME280;5374;42.742;23.266;2023-02-05T01:00:58;95574.03;;;-1.18;82.59
10652;BME280;5374;42.742;23.266;2023-02-05T01:03:45;95583.94;;;-1.14;81.32
10652;BME280;5374;42.742;23.266;2023-02-05T01:06:32;95578.72;;;-1.14;80.79
10652;BME280;5374;42.742;23.266;2023-02-05T01:09:20;95591.28;;;-1.17;80.70
10652;BME280;5374;42.742;23.266;2023-02-05T01:12:09;95590.84;;;-1.29;80.86
10652;BME280;5374;42.742;23.266;2023-02-05T01:14:56;95586.94;;;-1.25;80.88
10652;BME280;5374;42.742;23.266;2023-02-05T01:17:43;95585.00;;;-1.31;80.85
10652;BME280;5374;42.742;23.266;2023-02-05T01:20:30;95587.78;;;-1.32;81.31
10652;BME280;5374;42.742;23.266;2023-02-05T01:23:17;95568.69;;;-1.48;81.34
10652;BME280;5374;42.742;23.266;2023-02-05T01:26:05;95590.44;;;-1.41;81.93
10652;BME280;5374;42.742;23.266;2023-02-05T01:28:53;95578.59;;;-1.43;80.44
10652;BME280;5374;42.742;23.266;2023-02-05T01:31:41;95591.72;;;-1.36;79.84
10652;BME280;5374;42.742;23.266;2023-02-05T01:34:28;95603.47;;;-1.41;80.92
10652;BME280;5374;42.742;23.266;2023-02-05T01:37:15;95585.78;;;-1.53;80.90
10652;BME280;5374;42.742;23.266;2023-02-05T01:40:03;95604.69;;;-1.28;80.48
10652;BME280;5374;42.742;23.266;2023-02-05T01:42:51;95604.22;;;-1.32;80.52
10652;BME280;5374;42.742;23.266;2023-02-05T01:46:04;95605.25;;;-1.41;79.45
10652;BME280;5374;42.742;23.266;2023-02-05T01:48:56;95610.19;;;-1.54;79.06
10652;BME280;5374;42.742;23.266;2023-02-05T01:51:46;95610.38;;;-1.56;80.15
10652;BME280;5374;42.742;23.266;2023-02-05T01:54:36;95608.69;;;-1.41;79.38
10652;BME280;5374;42.742;23.266;2023-02-05T01:57:24;95620.06;;;-1.42;79.14
10652;BME280;5374;42.742;23.266;2023-02-05T02:00:12;95622.88;;;-1.51;78.49
10652;BME280;5374;42.742;23.266;2023-02-05T02:03:01;95617.91;;;-1.61;78.73
10652;BME280;5374;42.742;23.266;2023-02-05T02:05:48;95614.16;;;-1.58;78.35
10652;BME280;5374;42.742;23.266;2023-02-05T02:08:36;95616.44;;;-1.63;78.86
10652;BME280;5374;42.742;23.266;2023-02-05T02:11:25;95632.31;;;-1.50;79.27
10652;BME280;5374;42.742;23.266;2023-02-05T02:14:14;95637.69;;;-1.52;79.04
10652;BME280;5374;42.742;23.266;2023-02-05T02:17:02;95547.38;;;-2.13;79.60
10652;BME280;5374;42.742;23.266;2023-02-05T02:19:56;95641.53;;;-1.70;79.30
10652;BME280;5374;42.742;23.266;2023-02-05T02:22:57;95639.06;;;-1.64;79.35
10652;BME280;5374;42.742;23.266;2023-02-05T02:26:15;95643.56;;;-1.58;79.88
10652;BME280;5374;42.742;23.266;2023-02-05T02:29:09;95633.34;;;-1.59;79.65
10652;BME280;5374;42.742;23.266;2023-02-05T02:32:03;95636.31;;;-1.70;81.06
10652;BME280;5374;42.742;23.266;2023-02-05T02:34:59;95634.84;;;-1.65;81.23
10652;BME280;5374;42.742;23.266;2023-02-05T02:37:54;95635.34;;;-1.69;81.49
10652;BME280;5374;42.742;23.266;2023-02-05T02:40:46;95642.81;;;-1.66;82.11
10652;BME280;5374;42.742;23.266;2023-02-05T02:43:40;95645.72;;;-1.61;83.06
10652;BME280;5374;42.742;23.266;2023-02-05T02:46:35;95640.50;;;-1.61;82.79
10652;BME280;5374;42.742;23.266;2023-02-05T02:49:29;95651.09;;;-1.63;82.88
10652;BME280;5374;42.742;23.266;2023-02-05T02:52:19;95615.41;;;-1.85;82.96
10652;BME280;5374;42.742;23.266;2023-02-05T02:55:10;95640.38;;;-1.68;83.26
10652;BME280;5374;42.742;23.266;2023-02-05T02:58:00;95636.50;;;-1.80;83.52
10652;BME280;5374;42.742;23.266;2023-02-05T03:00:48;95640.56;;;-1.78;83.92
10652;BME280;5374;42.742;23.266;2023-02-05T03:03:40;95653.06;;;-1.73;84.63
10652;BME280;5374;42.742;23.266;2023-02-05T03:06:29;95659.09;;;-1.73;84.89
10652;BME280;5374;42.742;23.266;2023-02-05T03:09:24;95657.31;;;-1.72;86.31
10652;BME280;5374;42.742;23.266;2023-02-05T03:12:13;95650.78;;;-1.68;86.95
10652;BME280;5374;42.742;23.266;2023-02-05T03:15:01;95654.09;;;-1.82;87.53
10652;BME280;5374;42.742;23.266;2023-02-05T03:17:50;95660.88;;;-1.73;87.68
10652;BME280;5374;42.742;23.266;2023-02-05T03:20:44;95574.31;;;-2.61;87.93
10652;BME280;5374;42.742;23.266;2023-02-05T03:23:32;95671.69;;;-1.92;87.10
10652;BME280;5374;42.742;23.266;2023-02-05T03:26:25;95670.38;;;-1.96;88.23
10652;BME280;5374;42.742;23.266;2023-02-05T03:29:15;95676.22;;;-1.94;88.07
10652;BME280;5374;42.742;23.266;2023-02-05T03:32:13;95658.38;;;-2.05;87.93
10652;BME280;5374;42.742;23.266;2023-02-05T03:35:15;95678.19;;;-1.96;87.03
10652;BME280;5374;42.742;23.266;2023-02-05T03:38:32;95675.63;;;-2.04;86.39
10652;BME280;5374;42.742;23.266;2023-02-05T03:41:32;95674.81;;;-2.13;86.05
10652;BME280;5374;42.742;23.266;2023-02-05T03:44:44;95666.72;;;-2.26;87.14
10652;BME280;5374;42.742;23.266;2023-02-05T03:47:48;95682.00;;;-2.31;87.08
10652;BME280;5374;42.742;23.266;2023-02-05T03:50:47;95652.13;;;-2.52;88.70
10652;BME280;5374;42.742;23.266;2023-02-05T03:53:40;95700.53;;;-2.34;87.90
10652;BME280;5374;42.742;23.266;2023-02-05T03:56:38;95684.75;;;-2.33;87.68
10652;BME280;5374;42.742;23.266;2023-02-05T03:59:28;95699.06;;;-2.29;87.20
10652;BME280;5374;42.742;23.266;2023-02-05T04:02:16;95696.63;;;-2.30;85.87
10652;BME280;5374;42.742;23.266;2023-02-05T04:05:04;95697.75;;;-2.33;86.59
10652;BME280;5374;42.742;23.266;2023-02-05T04:07:52;95667.56;;;-2.50;86.85
10652;BME280;5374;42.742;23.266;2023-02-05T04:10:40;95699.38;;;-2.32;85.68
10652;BME280;5374;42.742;23.266;2023-02-05T04:13:27;95706.50;;;-2.26;86.31
10652;BME280;5374;42.742;23.266;2023-02-05T04:16:14;95670.16;;;-2.50;85.62
10652;BME280;5374;42.742;23.266;2023-02-05T04:19:01;95702.63;;;-2.22;85.08
10652;BME280;5374;42.742;23.266;2023-02-05T04:21:48;95711.72;;;-2.26;85.50
10652;BME280;5374;42.742;23.266;2023-02-05T04:24:35;95711.41;;;-2.31;84.75
10652;BME280;5374;42.742;23.266;2023-02-05T04:27:24;95704.25;;;-2.29;85.19
10652;BME280;5374;42.742;23.266;2023-02-05T04:30:12;95694.50;;;-2.35;85.95
10652;BME280;5374;42.742;23.266;2023-02-05T04:32:59;95709.28;;;-2.35;86.92
10652;BME280;5374;42.742;23.266;2023-02-05T04:35:46;95641.72;;;-2.76;87.21
10652;BME280;5374;42.742;23.266;2023-02-05T04:38:33;95712.38;;;-2.32;87.55
10652;BME280;5374;42.742;23.266;2023-02-05T04:41:20;95699.72;;;-2.51;88.26
10652;BME280;5374;42.742;23.266;2023-02-05T04:44:09;95710.13;;;-2.51;89.55
10652;BME280;5374;42.742;23.266;2023-02-05T04:46:56;95723.41;;;-2.46;89.86
10652;BME280;5374;42.742;23.266;2023-02-05T04:49:43;95731.38;;;-2.48;91.91
10652;BME280;5374;42.742;23.266;2023-02-05T04:52:30;95719.84;;;-2.45;91.85
10652;BME280;5374;42.742;23.266;2023-02-05T04:55:17;95722.16;;;-2.50;92.23
10652;BME280;5374;42.742;23.266;2023-02-05T04:58:04;95728.47;;;-2.45;92.24
10652;BME280;5374;42.742;23.266;2023-02-05T05:00:53;95741.63;;;-2.46;92.42
10652;BME280;5374;42.742;23.266;2023-02-05T05:03:40;95730.25;;;-2.53;92.20
10652;BME280;5374;42.742;23.266;2023-02-05T05:06:27;95717.91;;;-2.59;92.13
10652;BME280;5374;42.742;23.266;2023-02-05T05:09:14;95749.09;;;-2.43;91.73
10652;BME280;5374;42.742;23.266;2023-02-05T05:12:01;95746.50;;;-2.51;91.91
10652;BME280;5374;42.742;23.266;2023-02-05T05:14:48;95747.16;;;-2.49;92.92
10652;BME280;5374;42.742;23.266;2023-02-05T05:17:37;95723.41;;;-2.70;93.00
10652;BME280;5374;42.742;23.266;2023-02-05T05:20:24;95758.03;;;-2.46;93.23
10652;BME280;5374;42.742;23.266;2023-02-05T05:23:11;95733.03;;;-2.55;93.35
10652;BME280;5374;42.742;23.266;2023-02-05T05:25:58;95766.66;;;-2.45;93.92
10652;BME280;5374;42.742;23.266;2023-02-05T05:28:45;95755.13;;;-2.43;93.60
10652;BME280;5374;42.742;23.266;2023-02-05T05:31:32;95765.53;;;-2.51;94.47
10652;BME280;5374;42.742;23.266;2023-02-05T05:34:21;95771.19;;;-2.55;95.68
10652;BME280;5374;42.742;23.266;2023-02-05T05:37:08;95770.84;;;-2.60;95.87
10652;BME280;5374;42.742;23.266;2023-02-05T05:39:55;95776.72;;;-2.58;97.00
10652;BME280;5374;42.742;23.266;2023-02-05T05:43:01;95749.41;;;-2.79;98.30
10652;BME280;5374;42.742;23.266;2023-02-05T05:46:06;95763.13;;;-3.02;98.44
10652;BME280;5374;42.742;23.266;2023-02-05T05:48:55;95774.22;;;-2.84;98.27
10652;BME280;5374;42.742;23.266;2023-02-05T05:51:43;95806.28;;;-2.59;99.66
10652;BME280;5374;42.742;23.266;2023-02-05T05:54:30;95797.50;;;-2.58;98.59
10652;BME280;5374;42.742;23.266;2023-02-05T05:57:17;95799.13;;;-2.57;99.69
10652;BME280;5374;42.742;23.266;2023-02-05T06:00:06;95810.84;;;-2.53;100.00
10652;BME280;5374;42.742;23.266;2023-02-05T06:02:54;95757.81;;;-2.85;99.49
10652;BME280;5374;42.742;23.266;2023-02-05T06:05:41;95806.28;;;-2.43;97.25
10652;BME280;5374;42.742;23.266;2023-02-05T06:08:30;95812.16;;;-2.41;96.13
10652;BME280;5374;42.742;23.266;2023-02-05T06:11:17;95813.31;;;-2.35;96.00
10652;BME280;5374;42.742;23.266;2023-02-05T06:14:05;95820.94;;;-2.34;96.43
10652;BME280;5374;42.742;23.266;2023-02-05T06:16:52;95817.00;;;-2.46;95.35
10652;BME280;5374;42.742;23.266;2023-02-05T06:19:40;95831.34;;;-2.34;94.83
10652;BME280;5374;42.742;23.266;2023-02-05T06:22:27;95836.38;;;-2.32;94.54
10652;BME280;5374;42.742;23.266;2023-02-05T06:25:16;95842.06;;;-2.21;94.21
10652;BME280;5374;42.742;23.266;2023-02-05T06:28:03;95839.50;;;-2.13;92.76
10652;BME280;5374;42.742;23.266;2023-02-05T06:30:51;95839.81;;;-2.16;91.98
10652;BME280;5374;42.742;23.266;2023-02-05T06:33:38;95845.69;;;-2.14;91.23
10652;BME280;5374;42.742;23.266;2023-02-05T06:36:25;95826.97;;;-2.33;91.14
10652;BME280;5374;42.742;23.266;2023-02-05T06:39:12;95856.22;;;-2.31;90.37
10652;BME280;5374;42.742;23.266;2023-02-05T06:42:02;95847.59;;;-2.24;90.57
10652;BME280;5374;42.742;23.266;2023-02-05T06:44:49;95860.59;;;-2.32;89.91
10652;BME280;5374;42.742;23.266;2023-02-05T06:47:36;95868.41;;;-2.24;89.83
10652;BME280;5374;42.742;23.266;2023-02-05T06:50:24;95863.84;;;-2.22;89.05
10652;BME280;5374;42.742;23.266;2023-02-05T06:53:11;95882.75;;;-2.12;88.63
10652;BME280;5374;42.742;23.266;2023-02-05T06:55:58;95877.53;;;-2.28;88.88
10652;BME280;5374;42.742;23.266;2023-02-05T06:58:47;95884.69;;;-2.14;87.95
10652;BME280;5374;42.742;23.266;2023-02-05T07:01:35;95885.34;;;-2.12;88.50
10652;BME280;5374;42.742;23.266;2023-02-05T07:04:22;95883.25;;;-2.08;88.03
10652;BME280;5374;42.742;23.266;2023-02-05T07:07:11;95891.19;;;-2.01;87.97
10652;BME280;5374;42.742;23.266;2023-02-05T07:10:00;95896.91;;;-1.98;88.05
10652;BME280;5374;42.742;23.266;2023-02-05T07:12:47;95912.84;;;-2.09;88.02
10652;BME280;5374;42.742;23.266;2023-02-05T07:15:37;95903.22;;;-2.00;88.52
10652;BME280;5374;42.742;23.266;2023-02-05T07:18:25;95910.41;;;-1.94;87.20
10652;BME280;5374;42.742;23.266;2023-02-05T07:21:14;95894.16;;;-1.88;86.44
10652;BME280;5374;42.742;23.266;2023-02-05T07:24:04;95882.25;;;-1.99;86.44
10652;BME280;5374;42.742;23.266;2023-02-05T07:26:52;95869.25;;;-1.75;85.14
10652;BME280;5374;42.742;23.266;2023-02-05T07:29:40;95921.81;;;-1.30;84.16
10652;BME280;5374;42.742;23.266;2023-02-05T07:32:28;95915.09;;;-1.09;82.55
10652;BME280;5374;42.742;23.266;2023-02-05T07:35:16;95905.84;;;-1.19;81.84
10652;BME280;5374;42.742;23.266;2023-02-05T07:38:04;95922.59;;;-0.97;81.78
10652;BME280;5374;42.742;23.266;2023-02-05T07:40:51;95924.31;;;-0.74;80.96
10652;BME280;5374;42.742;23.266;2023-02-05T07:43:42;95910.41;;;-0.66;81.13
10652;BME280;5374;42.742;23.266;2023-02-05T07:46:29;95926.50;;;-0.46;80.32
10652;BME280;5374;42.742;23.266;2023-02-05T07:49:18;95934.13;;;-0.45;78.98
10652;BME280;5374;42.742;23.266;2023-02-05T07:52:08;95928.09;;;-0.37;78.22
10652;BME280;5374;42.742;23.266;2023-02-05T07:54:56;95942.25;;;-0.31;77.00
10652;BME280;5374;42.742;23.266;2023-02-05T07:57:43;95948.22;;;-0.15;76.63
10652;BME280;5374;42.742;23.266;2023-02-05T08:00:31;95930.66;;;-0.29;76.76
10652;BME280;5374;42.742;23.266;2023-02-05T08:03:19;95950.22;;;0.06;76.18
10652;BME280;5374;42.742;23.266;2023-02-05T08:06:12;95960.75;;;0.21;75.95
10652;BME280;5374;42.742;23.266;2023-02-05T08:09:00;95961.94;;;0.41;75.49
10652;BME280;5374;42.742;23.266;2023-02-05T08:11:47;95952.47;;;0.63;74.58
10652;BME280;5374;42.742;23.266;2023-02-05T08:14:34;95957.31;;;0.89;71.35
10652;BME280;5374;42.742;23.266;2023-02-05T08:17:21;95962.41;;;1.05;69.99
10652;BME280;5374;42.742;23.266;2023-02-05T08:20:10;95964.69;;;1.23;68.71
10652;BME280;5374;42.742;23.266;2023-02-05T08:22:58;95960.81;;;1.33;66.51
10652;BME280;5374;42.742;23.266;2023-02-05T08:25:52;95973.81;;;1.42;63.73
10652;BME280;5374;42.742;23.266;2023-02-05T08:28:39;95980.47;;;1.29;61.41
10652;BME280;5374;42.742;23.266;2023-02-05T08:31:26;95977.28;;;1.05;59.11
10652;BME280;5374;42.742;23.266;2023-02-05T08:34:14;95969.50;;;0.96;59.93
10652;BME280;5374;42.742;23.266;2023-02-05T08:37:01;95988.44;;;0.98;59.68
10652;BME280;5374;42.742;23.266;2023-02-05T08:39:50;95983.09;;;0.92;58.32
10652;BME280;5374;42.742;23.266;2023-02-05T08:42:37;95983.09;;;0.92;59.32
10652;BME280;5374;42.742;23.266;2023-02-05T08:45:24;95991.34;;;1.03;58.75
10652;BME280;5374;42.742;23.266;2023-02-05T08:48:11;95988.09;;;1.16;57.69
10652;BME280;5374;42.742;23.266;2023-02-05T08:50:58;95988.28;;;1.15;57.91
10652;BME280;5374;42.742;23.266;2023-02-05T08:53:46;95997.84;;;1.08;58.73
10652;BME280;5374;42.742;23.266;2023-02-05T08:56:34;95993.97;;;1.18;57.52
10652;BME280;5374;42.742;23.266;2023-02-05T08:59:21;95998.97;;;1.28;56.85
10652;BME280;5374;42.742;23.266;2023-02-05T09:02:12;96004.09;;;1.36;57.07
10652;BME280;5374;42.742;23.266;2023-02-05T09:05:00;96005.00;;;1.28;55.65
10652;BME280;5374;42.742;23.266;2023-02-05T09:07:47;96004.38;;;1.26;55.64
10652;BME280;5374;42.742;23.266;2023-02-05T09:10:34;96013.22;;;1.40;55.69
10652;BME280;5374;42.742;23.266;2023-02-05T09:13:23;96024.13;;;1.29;55.83
10652;BME280;5374;42.742;23.266;2023-02-05T09:16:11;96026.00;;;1.20;55.43
10652;BME280;5374;42.742;23.266;2023-02-05T09:18:58;96021.44;;;0.99;54.95
10652;BME280;5374;42.742;23.266;2023-02-05T09:21:45;96028.47;;;0.99;54.94
10652;BME280;5374;42.742;23.266;2023-02-05T09:24:35;96025.03;;;0.76;55.56
10652;BME280;5374;42.742;23.266;2023-02-05T09:27:22;96024.22;;;0.75;55.60
10652;BME280;5374;42.742;23.266;2023-02-05T09:30:12;96042.06;;;0.72;54.94
10652;BME280;5374;42.742;23.266;2023-02-05T09:32:59;96035.38;;;0.92;56.04
10652;BME280;5374;42.742;23.266;2023-02-05T09:35:46;96045.13;;;0.75;55.13
10652;BME280;5374;42.742;23.266;2023-02-05T09:38:34;96035.50;;;0.76;55.04
10652;BME280;5374;42.742;23.266;2023-02-05T09:41:25;96036.28;;;0.53;56.19
10652;BME280;5374;42.742;23.266;2023-02-05T09:44:21;96041.28;;;0.40;54.59
10652;BME280;5374;42.742;23.266;2023-02-05T09:47:19;96046.16;;;0.43;55.40
10652;BME280;5374;42.742;23.266;2023-02-05T09:50:12;96049.13;;;0.40;54.58
10652;BME280;5374;42.742;23.266;2023-02-05T09:53:04;96043.50;;;0.51;55.60
10652;BME280;5374;42.742;23.266;2023-02-05T09:55:56;96039.25;;;0.73;54.55
10652;BME280;5374;42.742;23.266;2023-02-05T09:58:45;96043.41;;;0.67;53.13
10652;BME280;5374;42.742;23.266;2023-02-05T10:01:40;96047.69;;;0.60;53.09
10652;BME280;5374;42.742;23.266;2023-02-05T10:04:31;96041.94;;;0.65;53.85
10652;BME280;5374;42.742;23.266;2023-02-05T10:07:24;96046.41;;;0.79;54.65
10652;BME280;5374;42.742;23.266;2023-02-05T10:10:26;96023.94;;;0.70;54.03
10652;BME280;5374;42.742;23.266;2023-02-05T10:13:34;96044.16;;;0.76;51.64
10652;BME280;5374;42.742;23.266;2023-02-05T10:19:51;96040.16;;;0.88;52.29
10652;BME280;5374;42.742;23.266;2023-02-05T10:22:56;96035.38;;;0.92;51.90
10652;BME280;5374;42.742;23.266;2023-02-05T10:26:03;96045.94;;;0.76;50.38
10652;BME280;5374;42.742;23.266;2023-02-05T10:29:16;96050.88;;;0.71;51.17
10652;BME280;5374;42.742;23.266;2023-02-05T10:32:16;96045.81;;;0.69;52.27
10652;BME280;5374;42.742;23.266;2023-02-05T10:35:21;96052.94;;;0.83;51.86
10652;BME280;5374;42.742;23.266;2023-02-05T10:38:15;96046.75;;;0.76;51.89
10652;BME280;5374;42.742;23.266;2023-02-05T10:41:06;96042.06;;;0.72;51.74
10652;BME280;5374;42.742;23.266;2023-02-05T10:44:02;96041.78;;;0.89;51.97
10652;BME280;5374;42.742;23.266;2023-02-05T10:46:52;96036.91;;;0.86;51.25
10652;BME280;5374;42.742;23.266;2023-02-05T10:49:45;96042.41;;;0.91;52.61
10652;BME280;5374;42.742;23.266;2023-02-05T10:52:35;96032.47;;;1.10;52.70
10652;BME280;5374;42.742;23.266;2023-02-05T10:55:23;96046.78;;;1.36;53.18
10652;BME280;5374;42.742;23.266;2023-02-05T10:58:27;96051.13;;;1.59;52.80
10652;BME280;5374;42.742;23.266;2023-02-05T11:01:19;96041.06;;;1.56;53.40
10652;BME280;5374;42.742;23.266;2023-02-05T11:04:10;96047.28;;;1.69;54.12
10652;BME280;5374;42.742;23.266;2023-02-05T11:06:59;96042.69;;;1.57;54.88
10652;BME280;5374;42.742;23.266;2023-02-05T11:09:52;96043.03;;;1.68;54.71
10652;BME280;5374;42.742;23.266;2023-02-05T11:12:42;96045.66;;;1.83;55.59
10652;BME280;5374;42.742;23.266;2023-02-05T11:15:31;96033.47;;;1.90;58.70
10652;BME280;5374;42.742;23.266;2023-02-05T11:18:22;96041.94;;;2.07;60.01
10652;BME280;5374;42.742;23.266;2023-02-05T11:21:10;96040.03;;;2.30;60.89
10652;BME280;5374;42.742;23.266;2023-02-05T11:23:57;96030.78;;;2.49;60.67
10652;BME280;5374;42.742;23.266;2023-02-05T11:26:46;96033.81;;;2.67;60.47
10652;BME280;5374;42.742;23.266;2023-02-05T11:29:34;96039.81;;;2.83;60.42
10652;BME280;5374;42.742;23.266;2023-02-05T11:32:30;96020.19;;;2.79;60.12
10652;BME280;5374;42.742;23.266;2023-02-05T11:35:21;96034.84;;;2.88;60.51
10652;BME280;5374;42.742;23.266;2023-02-05T11:38:12;95997.59;;;2.78;60.80
10652;BME280;5374;42.742;23.266;2023-02-05T11:41:05;96032.31;;;3.01;60.33
10652;BME280;5374;42.742;23.266;2023-02-05T11:43:55;96028.63;;;3.17;60.28
10652;BME280;5374;42.742;23.266;2023-02-05T11:46:44;96033.00;;;3.31;60.14
10652;BME280;5374;42.742;23.266;2023-02-05T11:49:34;96029.63;;;3.37;60.27
10652;BME280;5374;42.742;23.266;2023-02-05T11:52:25;96027.19;;;3.35;59.94
10652;BME280;5374;42.742;23.266;2023-02-05T11:55:23;96032.91;;;3.46;60.07
10652;BME280;5374;42.742;23.266;2023-02-05T11:58:23;96036.63;;;3.58;59.66
10652;BME280;5374;42.742;23.266;2023-02-05T12:01:22;96032.28;;;3.71;59.51
10652;BME280;5374;42.742;23.266;2023-02-05T12:04:16;96029.78;;;3.63;58.68
10652;BME280;5374;42.742;23.266;2023-02-05T12:07:09;96034.06;;;3.36;56.95
10652;BME280;5374;42.742;23.266;2023-02-05T12:09:58;96015.38;;;3.25;58.13
10652;BME280;5374;42.742;23.266;2023-02-05T12:12:55;96023.06;;;3.26;58.43
10652;BME280;5374;42.742;23.266;2023-02-05T12:15:51;96032.31;;;3.22;58.98
10652;BME280;5374;42.742;23.266;2023-02-05T12:18:50;96030.66;;;3.15;58.29
10652;BME280;5374;42.742;23.266;2023-02-05T12:21:47;96038.06;;;2.90;57.84
10652;BME280;5374;42.742;23.266;2023-02-05T12:24:46;96033.56;;;2.62;57.87
10652;BME280;5374;42.742;23.266;2023-02-05T12:27:48;96040.53;;;2.55;57.47
10652;BME280;5374;42.742;23.266;2023-02-05T12:30:48;96039.03;;;2.46;57.72
10652;BME280;5374;42.742;23.266;2023-02-05T12:33:47;96036.28;;;2.54;58.73
10652;BME280;5374;42.742;23.266;2023-02-05T12:36:47;96034.19;;;2.64;58.54
10652;BME280;5374;42.742;23.266;2023-02-05T12:39:43;96026.41;;;2.71;58.26
10652;BME280;5374;42.742;23.266;2023-02-05T12:42:32;96031.13;;;3.03;58.50
10652;BME280;5374;42.742;23.266;2023-02-05T12:45:30;96040.16;;;3.16;58.34
10652;BME280;5374;42.742;23.266;2023-02-05T12:48:39;96031.81;;;3.33;58.26
10652;BME280;5374;42.742;23.266;2023-02-05T12:51:40;96028.19;;;3.34;57.64
10652;BME280;5374;42.742;23.266;2023-02-05T12:54:54;96026.38;;;3.35;56.22
10652;BME280;5374;42.742;23.266;2023-02-05T12:57:50;96028.75;;;3.30;56.32
10652;BME280;5374;42.742;23.266;2023-02-05T13:00:42;96019.94;;;3.37;56.07
10652;BME280;5374;42.742;23.266;2023-02-05T13:03:33;96035.16;;;3.49;55.22
10652;BME280;5374;42.742;23.266;2023-02-05T13:06:27;96036.16;;;3.48;54.32
10652;BME280;5374;42.742;23.266;2023-02-05T13:09:19;96036.06;;;3.34;52.44
10652;BME280;5374;42.742;23.266;2023-02-05T13:12:11;96040.25;;;3.29;52.51
10652;BME280;5374;42.742;23.266;2023-02-05T13:15:06;96043.25;;;3.26;51.09
10652;BME280;5374;42.742;23.266;2023-02-05T13:17:59;96035.50;;;3.18;52.13
10652;BME280;5374;42.742;23.266;2023-02-05T13:20:52;96030.06;;;2.98;54.07
10652;BME280;5374;42.742;23.266;2023-02-05T13:24:02;96039.56;;;2.99;56.69
10652;BME280;5374;42.742;23.266;2023-02-05T13:27:15;96039.44;;;2.64;57.44
10652;BME280;5374;42.742;23.266;2023-02-05T13:30:30;96041.75;;;2.38;59.42
10652;BME280;5374;42.742;23.266;2023-02-05T13:33:20;96042.53;;;2.02;60.34
10652;BME280;5374;42.742;23.266;2023-02-05T13:36:20;96045.13;;;1.88;61.16
10652;BME280;5374;42.742;23.266;2023-02-05T13:39:30;96057.81;;;1.61;62.28
10652;BME280;5374;42.742;23.266;2023-02-05T13:42:51;96058.50;;;1.41;62.91
10652;BME280;5374;42.742;23.266;2023-02-05T13:52:22;96049.41;;;0.45;65.05
10652;BME280;5374;42.742;23.266;2023-02-05T13:58:48;96057.72;;;0.18;66.62
10652;BME280;5374;42.742;23.266;2023-02-05T14:01:40;96049.56;;;0.13;65.87
10652;BME280;5374;42.742;23.266;2023-02-05T14:04:35;96055.19;;;-0.07;66.17
10652;BME280;5374;42.742;23.266;2023-02-05T14:07:26;96049.66;;;-0.20;66.30
10652;BME280;5374;42.742;23.266;2023-02-05T14:10:25;96059.47;;;-0.22;65.86
10652;BME280;5374;42.742;23.266;2023-02-05T14:13:21;96059.81;;;-0.33;66.74
10652;BME280;5374;42.742;23.266;2023-02-05T14:19:53;96063.94;;;-0.47;66.75
10652;BME280;5374;42.742;23.266;2023-02-05T14:22:45;96067.69;;;-0.57;67.14
10652;BME280;5374;42.742;23.266;2023-02-05T14:26:06;96069.66;;;-0.59;67.54
10652;BME280;5374;42.742;23.266;2023-02-05T14:28:53;96070.63;;;-0.60;67.63
10652;BME280;5374;42.742;23.266;2023-02-05T14:31:47;96065.59;;;-0.70;67.44
10652;BME280;5374;42.742;23.266;2023-02-05T14:34:45;96071.78;;;-0.63;67.66
10652;BME280;5374;42.742;23.266;2023-02-05T14:37:47;96075.19;;;-0.87;68.49
10652;BME280;5374;42.742;23.266;2023-02-05T14:40:36;96078.94;;;-0.89;68.70
10652;BME280;5374;42.742;23.266;2023-02-05T14:43:28;96073.56;;;-0.88;68.19
10652;BME280;5374;42.742;23.266;2023-02-05T14:46:24;96075.84;;;-0.85;68.87
10652;BME280;5374;42.742;23.266;2023-02-05T14:49:21;96072.09;;;-0.90;68.06
10652;BME280;5374;42.742;23.266;2023-02-05T14:52:24;96081.88;;;-1.09;68.67
10652;BME280;5374;42.742;23.266;2023-02-05T14:55:18;96087.59;;;-1.13;69.51
10652;BME280;5374;42.742;23.266;2023-02-05T14:58:20;96077.63;;;-1.26;70.43
10652;BME280;5374;42.742;23.266;2023-02-05T15:01:29;96088.50;;;-1.30;71.20
10652;BME280;5374;42.742;23.266;2023-02-05T15:04:26;96050.72;;;-1.59;71.62
10652;BME280;5374;42.742;23.266;2023-02-05T15:07:21;96093.66;;;-1.55;71.99
10652;BME280;5374;42.742;23.266;2023-02-05T15:10:13;96063.06;;;-1.61;71.83
10652;BME280;5374;42.742;23.266;2023-02-05T15:13:10;96088.66;;;-1.48;72.16
10652;BME280;5374;42.742;23.266;2023-02-05T15:16:17;96097.25;;;-1.56;72.62
10652;BME280;5374;42.742;23.266;2023-02-05T15:19:07;96094.47;;;-1.62;72.49
10652;BME280;5374;42.742;23.266;2023-02-05T15:21:56;96091.53;;;-1.67;72.74
10652;BME280;5374;42.742;23.266;2023-02-05T15:24:43;96104.06;;;-1.55;72.13
10652;BME280;5374;42.742;23.266;2023-02-05T15:27:40;96103.41;;;-1.65;71.84
10652;BME280;5374;42.742;23.266;2023-02-05T15:30:42;96085.97;;;-1.73;71.89
10652;BME280;5374;42.742;23.266;2023-02-05T15:33:39;96076.00;;;-1.85;72.47